Latest Weather Observations for Bourke

IDN60801

Issued at 5:32 am EDT Friday 12 February 2016 (issued every 30 minutes, with the page automatically refreshed every 10 minutes)

About weather observations | Map of weather stations | Latest weather observations for NSW | Other Formats
Station Details ID: 048245 Name: BOURKE AIRPORT AWS Lat: -30.04 Lon: 145.95 Height: 107.3 m
Data from the previous 72 hours. | See also: Recent months at Bourke
Date/Time
EDT
Temp
°C
App
Temp
°C
Dew
Point
Rel
Hum
%
Delta-T
°C
Wind Press
QNH
hPa
Press
MSL
hPa
Rain
since 9 am
mm
Dir
 
Spd
km/h
Gust
km/h
Spd
kts
Gust
kts
12/05:30am 21.7 20.3 10.8 50 6.0 E 9 9 5 5 1010.9 1010.2 0.0
12/05:00am 22.8 21.9 11.2 48 6.5 SE 7 9 4 5 1010.7 1010.0 0.0
12/04:30am 22.8 21.5 11.2 48 6.5 ESE 9 11 5 6 1010.3 1009.6 0.0
12/04:00am 23.5 21.9 11.5 47 6.8 ESE 11 15 6 8 1010.4 1009.7 0.0
12/03:30am 23.2 22.1 10.6 45 7.0 ENE 7 9 4 5 1010.2 1009.5 0.0
12/03:00am 24.3 22.5 10.9 43 7.5 ESE 11 15 6 8 1010.5 1009.8 0.0
12/02:30am 25.4 24.1 11.2 41 8.0 SE 9 15 5 8 1010.7 1010.0 0.0
12/02:00am 25.7 24.8 10.7 39 8.4 N 6 13 3 7 1010.5 1009.8 0.0
12/01:30am 27.6 23.9 9.4 32 10.1 NE 19 22 10 12 1010.4 1009.7 0.0
12/01:00am 27.7 25.3 10.0 33 9.9 E 13 15 7 8 1011.4 1010.7 0.0
12/12:30am 28.0 25.6 10.2 33 10.0 SSE 13 19 7 10 1012.2 1011.5 0.0
12/12:00am 28.1 24.6 10.3 33 10.1 SSE 19 26 10 14 1012.6 1011.9 0.0
 
Date/Time
EDT
Temp
°C
App
Temp
°C
Dew
Point
Rel
Hum
%
Delta-T
°C
Wind Press
QNH
hPa
Press
MSL
hPa
Rain
since 9 am
mm
Dir
 
Spd
km/h
Gust
km/h
Spd
kts
Gust
kts
11/11:30pm 28.2 24.6 10.4 33 10.1 S 20 30 11 16 1012.9 1012.2 0.0
11/11:00pm 28.6 24.6 10.3 32 10.4 S 22 32 12 17 1012.7 1012.0 0.0
11/10:30pm 29.0 26.1 9.7 30 10.9 SE 15 20 8 11 1012.0 1011.3 0.0
11/10:00pm 29.1 25.5 9.8 30 10.9 E 19 24 10 13 1011.5 1010.8 0.0
11/09:30pm 29.9 26.5 10.5 30 11.1 ESE 19 32 10 17 1011.5 1010.8 0.0
11/09:27pm 30.0 27.6 10.0 29 11.4 SE 13 32 7 17 1011.4 1010.7 0.0
11/09:00pm 29.9 28.8 10.5 30 11.1 E 7 13 4 7 1010.7 1010.0 0.0
11/08:30pm 29.5 26.7 11.5 33 10.4 ESE 17 22 9 12 1010.6 1009.9 0.0
11/08:00pm 29.4 26.8 11.9 34 10.2 E 17 22 9 12 1010.7 1010.0 0.0
11/07:30pm 29.7 27.0 11.7 33 10.5 ESE 17 22 9 12 1010.8 1010.1 0.0
11/07:00pm 30.9 27.2 10.3 28 11.8 SE 20 30 11 16 1010.5 1009.8 0.0
11/06:30pm 30.7 25.7 11.1 30 11.4 SSE 28 41 15 22 1010.3 1009.6 0.0
11/06:05pm 30.6 24.9 11.1 30 11.3 S 32 50 17 27 1009.7 1009.0 0.0
11/06:00pm 31.0 24.9 10.4 28 11.8 S 33 50 18 27 1009.7 1009.0 0.0
11/05:30pm 34.0 25.7 7.9 20 14.6 SSW 41 54 22 29 1009.0 1008.3 0.0
11/05:22pm 35.1 30.5 6.4 17 15.8 S 20 50 11 27 1009.0 1008.3 0.0
11/05:00pm 37.4 33.5 5.4 14 17.6 ENE 15 22 8 12 1008.0 1007.3 0.0
11/04:30pm 37.6 35.3 5.6 14 17.6 NE 7 15 4 8 1008.0 1007.3 0.0
11/04:00pm 37.5 34.0 5.5 14 17.6 SW 13 19 7 10 1008.5 1007.8 0.0
11/03:30pm 37.2 34.0 5.3 14 17.4 ESE 11 19 6 10 1009.0 1008.3 0.0
11/03:00pm 37.1 33.5 5.2 14 17.4 ENE 13 20 7 11 1009.7 1009.0 0.0
11/02:30pm 37.1 32.8 5.2 14 17.4 ESE 17 26 9 14 1010.3 1009.6 0.0
11/02:00pm 36.9 34.3 6.0 15 17.0 E 9 15 5 8 1010.4 1009.7 0.0
11/01:30pm 36.3 33.2 5.5 15 16.8 E 11 17 6 9 1010.9 1010.2 0.0
11/01:00pm 36.6 34.1 6.7 16 16.6 NNW 9 19 5 10 1011.2 1010.5 0.0
11/12:30pm 35.9 33.9 7.0 17 16.1 ENE 7 13 4 7 1011.6 1010.9 0.0
11/12:00pm 35.9 32.6 6.2 16 16.3 E 13 19 7 10 1012.0 1011.3 0.0
11/11:30am 35.7 33.1 7.7 18 15.7 W 11 19 6 10 1012.3 1011.6 0.0
11/11:00am 33.9 31.3 9.2 22 14.1 N 13 19 7 10 1012.3 1011.6 0.0
11/10:30am 32.7 30.1 9.5 24 13.2 NNW 13 19 7 10 1012.4 1011.7 0.0
11/10:00am 32.5 31.3 11.6 28 12.3 NNW 9 15 5 8 1012.4 1011.7 0.0
11/09:30am 30.1 28.8 11.1 31 11.0 NNW 9 11 5 6 1012.5 1011.8 0.0
11/09:00am 28.0 26.8 10.2 33 10.0 N 7 13 4 7 1012.5 1011.8 0.0
11/08:30am 26.8 25.3 10.5 36 9.2 NE 9 11 5 6 1012.4 1011.7 0.0
11/08:00am 24.4 23.9 12.0 46 7.1 ENE 6 9 3 5 1012.2 1011.5 0.0
11/07:30am 22.0 22.5 11.7 52 5.8 CALM 0 0 0 0 1012.0 1011.3 0.0
11/07:00am 20.2 20.4 10.6 54 5.2 CALM 0 0 0 0 1011.4 1010.7 0.0
11/06:30am 20.5 20.6 10.3 52 5.5 CALM 0 0 0 0 1010.9 1010.2 0.0
11/06:00am 20.5 20.6 10.0 51 5.7 CALM 0 0 0 0 1010.5 1009.8 0.0
11/05:30am 21.3 21.2 9.5 47 6.4 CALM 0 0 0 0 1010.2 1009.5 0.0
11/05:00am 21.1 19.9 9.4 47 6.3 ENE 6 7 3 4 1009.9 1009.2 0.0
11/04:30am 21.7 20.4 9.3 45 6.7 ENE 6 7 3 4 1009.7 1009.0 0.0
11/04:00am 22.2 21.6 9.0 43 7.1 NNE 2 7 1 4 1009.6 1008.9 0.0
11/03:30am 22.8 21.4 8.9 41 7.5 NNE 6 6 3 3 1009.7 1009.0 0.0
11/03:00am 23.4 21.3 8.3 38 8.1 NNE 9 9 5 5 1009.8 1009.1 0.0
11/02:30am 23.2 20.8 8.5 39 7.9 NE 11 11 6 6 1010.0 1009.3 0.0
11/02:00am 23.9 21.8 8.3 37 8.3 NE 9 11 5 6 1010.3 1009.6 0.0
11/01:30am 24.9 22.4 8.0 34 9.0 NE 11 11 6 6 1010.6 1009.9 0.0
11/01:00am 25.9 23.4 8.0 32 9.6 ENE 11 15 6 8 1010.8 1010.1 0.0
11/12:30am 25.9 23.4 8.0 32 9.6 ENE 11 13 6 7 1011.0 1010.3 0.0
11/12:00am 25.8 23.5 7.4 31 9.8 ENE 9 11 5 6 1011.2 1010.5 0.0
 
Date/Time
EDT
Temp
°C
App
Temp
°C
Dew
Point
Rel
Hum
%
Delta-T
°C
Wind Press
QNH
hPa
Press
MSL
hPa
Rain
since 9 am
mm
Dir
 
Spd
km/h
Gust
km/h
Spd
kts
Gust
kts
10/11:30pm 27.0 24.3 7.5 29 10.5 ENE 11 11 6 6 1011.1 1010.4 0.0
10/11:00pm 27.7 25.0 7.5 28 10.9 ENE 11 11 6 6 1011.2 1010.5 0.0
10/10:30pm 28.2 25.5 7.4 27 11.2 ENE 11 13 6 7 1011.1 1010.4 0.0
10/10:00pm 28.8 26.1 7.4 26 11.6 E 11 13 6 7 1011.0 1010.3 0.0
10/09:30pm 29.4 26.9 6.7 24 12.2 ENE 9 11 5 6 1010.8 1010.1 0.0
10/09:00pm 30.6 27.7 6.5 22 13.0 E 11 13 6 7 1010.6 1009.9 0.0
10/08:30pm 32.1 28.8 6.3 20 13.9 E 13 17 7 9 1010.3 1009.6 0.0
10/08:00pm 33.6 29.7 5.2 17 15.2 E 15 20 8 11 1010.0 1009.3 0.0
10/07:30pm 35.2 30.6 3.7 14 16.6 E 17 28 9 15 1009.7 1009.0 0.0
10/07:00pm 35.6 31.2 5.0 15 16.5 ESE 17 24 9 13 1009.3 1008.6 0.0
10/06:30pm 36.0 32.8 5.3 15 16.7 ESE 11 17 6 9 1009.2 1008.5 0.0
10/06:00pm 36.9 32.2 6.0 15 17.1 SE 20 30 11 16 1009.2 1008.5 0.0
10/05:30pm 37.0 31.7 7.0 16 16.8 ESE 24 35 13 19 1009.2 1008.5 0.0
10/05:00pm 37.3 33.7 8.2 17 16.6 SE 17 28 9 15 1009.3 1008.6 0.0
10/04:30pm 36.9 33.8 8.7 18 16.2 ESE 15 26 8 14 1009.4 1008.8 0.0
10/04:00pm 36.1 32.4 8.0 18 15.9 ESE 17 28 9 15 1009.8 1009.1 0.0
10/03:30pm 36.3 33.2 9.0 19 15.7 SE 15 24 8 13 1010.3 1009.6 0.0
10/03:00pm 35.4 33.1 10.4 22 14.6 E 13 28 7 15 1010.8 1010.1 0.0
10/02:30pm 35.0 31.3 10.1 22 14.5 ESE 20 28 11 15 1011.3 1010.6 0.0
10/02:00pm 35.0 31.7 10.8 23 14.2 ESE 19 32 10 17 1011.9 1011.2 0.0
10/01:30pm 34.7 31.9 9.9 22 14.4 SE 15 30 8 16 1012.2 1011.5 0.0
10/01:00pm 34.1 31.7 11.3 25 13.5 SE 15 22 8 12 1012.6 1011.9 0.0
10/12:30pm 33.9 32.0 10.5 24 13.6 ESE 11 20 6 11 1013.1 1012.4 0.0
10/12:00pm 32.4 30.7 9.9 25 12.9 SE 9 19 5 10 1013.6 1012.9 0.0
10/11:30am 32.8 31.1 11.3 27 12.6 E 11 19 6 10 1013.9 1013.2 0.0
10/11:00am 31.5 29.8 11.3 29 11.8 E 11 17 6 9 1014.1 1013.4 0.0
10/10:30am 29.7 27.6 11.2 31 10.7 E 13 19 7 10 1014.2 1013.5 0.0
10/10:00am 29.4 26.8 11.9 34 10.2 NE 17 22 9 12 1014.2 1013.5 0.0
10/09:30am 27.9 25.1 11.5 36 9.4 NE 17 22 9 12 1014.2 1013.5 0.0
10/09:00am 26.9 23.9 11.8 39 8.7 ENE 19 26 10 14 1014.0 1013.3 0.0
10/08:30am 24.9 21.6 10.8 41 7.9 ENE 19 28 10 15 1013.8 1013.1 0.0
10/08:00am 24.0 21.0 10.7 43 7.4 ENE 17 22 9 12 1013.6 1012.9 0.0
10/07:30am 22.4 20.5 10.5 47 6.6 ENE 11 15 6 8 1013.3 1012.6 0.0
10/07:00am 21.4 18.9 9.6 47 6.4 ENE 13 17 7 9 1013.2 1012.5 0.0
10/06:30am 23.0 20.6 10.1 44 7.1 E 13 19 7 10 1013.0 1012.3 0.0
10/06:00am 22.7 20.2 9.8 44 7.0 E 13 20 7 11 1012.9 1012.2 0.0
10/05:30am 22.5 19.9 9.3 43 7.1 E 13 15 7 8 1012.7 1012.0 0.0
10/05:00am 23.5 20.6 9.5 41 7.6 E 15 20 8 11 1012.6 1011.9 0.0
10/04:30am 23.8 20.8 9.4 40 7.8 E 15 19 8 10 1012.5 1011.8 0.0
10/04:00am 20.7 18.5 9.3 48 6.1 E 11 13 6 7 1012.5 1011.8 0.0
10/03:30am 20.6 18.7 7.6 43 6.7 ESE 7 9 4 5 1012.5 1011.8 0.0
10/03:00am 21.4 20.4 7.3 40 7.3 E 2 6 1 3 1012.6 1011.9 0.0
10/02:30am 22.1 20.1 7.1 38 7.8 E 7 9 4 5 1012.7 1012.0 0.0
10/02:00am 23.6 21.5 8.1 37 8.2 E 9 13 5 7 1012.9 1012.2 0.0
10/01:30am 23.7 21.2 6.5 33 8.9 E 9 11 5 6 1013.1 1012.4 0.0
10/01:00am 24.4 21.4 6.2 31 9.4 ESE 11 13 6 7 1013.3 1012.6 0.0
10/12:30am 24.6 21.8 6.8 32 9.3 ESE 11 13 6 7 1013.4 1012.7 0.0
10/12:00am 24.2 21.8 5.1 29 9.6 E 7 9 4 5 1013.5 1012.8 0.0
 
Date/Time
EDT
Temp
°C
App
Temp
°C
Dew
Point
Rel
Hum
%
Delta-T
°C
Wind Press
QNH
hPa
Press
MSL
hPa
Rain
since 9 am
mm
Dir
 
Spd
km/h
Gust
km/h
Spd
kts
Gust
kts
09/11:30pm 24.9 22.5 4.1 26 10.4 E 6 7 3 4 1013.7 1013.0 0.0
09/11:00pm 26.0 23.1 4.5 25 10.9 ESE 9 13 5 7 1013.8 1013.1 0.0
09/10:30pm 26.4 23.0 4.2 24 11.2 ESE 11 13 6 7 1013.9 1013.2 0.0
09/10:00pm 27.5 24.5 3.9 22 11.9 E 9 11 5 6 1013.7 1013.0 0.0
09/09:30pm 28.9 25.4 3.7 20 12.8 E 11 13 6 7 1013.4 1012.7 0.0
09/09:00pm 29.9 26.3 3.0 18 13.6 E 11 13 6 7 1013.3 1012.6 0.0
09/08:30pm 31.2 27.7 3.3 17 14.3 E 11 17 6 9 1013.2 1012.5 0.0
09/08:00pm 33.0 28.3 2.9 15 15.5 E 17 24 9 13 1013.0 1012.3 0.0
09/07:30pm 34.3 29.2 3.0 14 16.2 E 19 32 10 17 1012.6 1011.9 0.0
09/07:00pm 35.2 30.6 3.7 14 16.6 ESE 17 32 9 17 1012.5 1011.8 0.0
09/06:30pm 35.8 31.1 5.1 15 16.6 E 19 30 10 16 1012.4 1011.7 0.0
09/06:00pm 35.8 30.9 5.1 15 16.6 E 20 32 11 17 1012.2 1011.5 0.0
09/05:30pm 36.0 31.1 7.1 17 16.1 ENE 22 35 12 19 1012.3 1011.6 0.0
09/05:00pm 35.9 31.4 7.0 17 16.1 E 20 37 11 20 1012.3 1011.6 0.0
09/04:30pm 36.0 31.7 7.1 17 16.1 E 19 35 10 19 1012.6 1011.9 0.0
09/04:00pm 35.7 30.6 7.7 18 15.7 E 24 35 13 19 1013.1 1012.4 0.0
09/03:30pm 36.1 30.5 7.2 17 16.2 E 26 33 14 18 1013.5 1012.8 0.0
09/03:00pm 35.4 31.2 8.3 19 15.4 ESE 20 37 11 20 1014.1 1013.4 0.0
09/02:30pm 34.6 29.3 8.4 20 14.8 E 26 39 14 21 1014.7 1014.0 0.0
09/02:00pm 34.7 30.2 9.9 22 14.4 E 24 33 13 18 1015.1 1014.4 0.0
09/01:30pm 34.3 30.2 11.4 25 13.5 E 24 37 13 20 1015.4 1014.7 0.0
09/01:00pm 33.2 30.1 11.7 27 12.7 E 19 35 10 19 1015.7 1015.0 0.0
09/12:30pm 32.1 28.5 11.8 29 12.0 ENE 22 37 12 20 1016.2 1015.5 0.0
09/12:00pm 32.2 28.7 13.4 32 11.4 ENE 24 37 13 20 1016.5 1015.8 0.0
09/11:30am 31.5 28.5 13.7 33 10.8 ENE 22 32 12 17 1016.6 1015.9 0.0
09/11:00am 30.4 27.1 14.1 37 9.9 ENE 24 35 13 19 1016.7 1016.0 0.0
09/10:30am 29.7 26.1 14.3 39 9.3 ENE 26 35 14 19 1016.6 1015.9 0.0
09/10:00am 28.9 25.2 13.9 39 9.0 ENE 26 33 14 18 1016.7 1016.0 0.0
09/09:30am 27.7 23.5 13.6 42 8.4 ENE 28 39 15 21 1016.6 1015.9 0.0
09/09:00am 27.2 23.4 13.5 42 8.1 E 26 37 14 20 1016.3 1015.6 0.0
09/08:30am 25.7 21.1 12.2 43 7.8 E 28 41 15 22 1016.2 1015.5 0.0
09/08:00am 24.9 21.7 11.8 44 7.5 ESE 20 30 11 16 1015.9 1015.2 0.0
09/07:30am 24.0 21.7 11.7 46 7.0 ESE 15 20 8 11 1015.6 1014.9 0.0
09/07:00am 23.3 21.0 11.7 48 6.6 ESE 15 20 8 11 1015.2 1014.5 0.0
09/06:30am 23.1 21.2 11.8 49 6.4 ESE 13 17 7 9 1014.8 1014.1 0.0
09/06:00am 23.9 21.2 11.6 46 7.0 ESE 17 22 9 12 1014.4 1013.7 0.0

Other Formats:

Comma delimited format used in spreadsheet applications
http://www.bom.gov.au/fwo/IDN60801/IDN60801.94703.axf

JavaScript Object Notation format (JSON) in row-major order
http://www.bom.gov.au/fwo/IDN60801/IDN60801.94703.json